createdAt,value
2023-11-18T00:01:02.494Z,56.61
2023-11-18T00:03:36.399Z,57.29
2023-11-18T00:06:09.634Z,56.95
2023-11-18T00:08:44.654Z,56.65
2023-11-18T00:11:41.948Z,57.02
2023-11-18T00:14:14.839Z,56.50
2023-11-18T00:16:47.860Z,56.77
2023-11-18T00:22:16.099Z,56.76
2023-11-18T00:24:50.446Z,55.77
2023-11-18T00:27:47.380Z,56.30
2023-11-18T00:30:21.573Z,56.38
2023-11-18T00:32:54.559Z,56.04
2023-11-18T00:35:27.613Z,56.65
2023-11-18T00:38:01.601Z,56.91
2023-11-18T00:40:59.586Z,56.33
2023-11-18T00:43:33.118Z,56.43
2023-11-18T00:46:07.481Z,56.28
2023-11-18T00:49:04.775Z,56.82
2023-11-18T00:51:38.664Z,55.75
2023-11-18T00:57:08.740Z,56.20
2023-11-18T00:59:44.708Z,56.28
2023-11-18T01:02:19.747Z,55.48
2023-11-18T01:04:53.265Z,56.12
2023-11-18T01:07:26.532Z,56.39
2023-11-18T01:12:48.520Z,55.88
2023-11-18T01:15:21.957Z,57.05
2023-11-18T01:18:00.622Z,56.88
2023-11-18T01:20:34.452Z,56.45
2023-11-18T01:23:08.094Z,56.46
2023-11-18T01:25:41.865Z,56.07
2023-11-18T01:28:16.764Z,56.73
2023-11-18T01:30:50.257Z,56.54
2023-11-18T01:33:48.120Z,57.04
2023-11-18T01:36:21.202Z,56.24
2023-11-18T01:38:56.489Z,57.13
2023-11-18T01:44:50.442Z,56.67
2023-11-18T01:47:23.789Z,56.14
2023-11-18T01:49:56.580Z,56.94
2023-11-18T01:52:31.876Z,57.17
2023-11-18T01:55:28.199Z,56.33
2023-11-18T01:58:04.662Z,56.96
2023-11-18T02:00:40.981Z,56.14
2023-11-18T02:03:14.344Z,57.16
2023-11-18T02:06:12.024Z,56.96
2023-11-18T02:08:45.368Z,56.94
2023-11-18T02:11:26.086Z,56.40
2023-11-18T02:14:05.892Z,56.17
2023-11-18T02:16:44.418Z,57.06
2023-11-18T02:19:22.306Z,56.49
2023-11-18T02:21:58.344Z,56.54
2023-11-18T02:24:34.514Z,57.47
2023-11-18T02:27:33.561Z,56.44
2023-11-18T02:30:13.597Z,56.82
2023-11-18T02:33:17.164Z,57.08
2023-11-18T02:35:54.168Z,57.41
2023-11-18T02:38:39.566Z,57.31
2023-11-18T02:41:14.857Z,56.95
2023-11-18T02:43:50.939Z,57.87
2023-11-18T02:46:28.906Z,56.95
2023-11-18T02:49:02.455Z,57.31
2023-11-18T02:51:40.518Z,57.01
2023-11-18T02:54:13.990Z,57.21
2023-11-18T02:57:10.486Z,56.88
2023-11-18T02:59:48.266Z,57.69
2023-11-18T03:02:22.497Z,57.06
2023-11-18T03:07:51.860Z,57.22
2023-11-18T03:10:25.746Z,56.41
2023-11-18T03:13:22.612Z,57.35
2023-11-18T03:15:56.935Z,57.15
2023-11-18T03:18:31.171Z,57.48
2023-11-18T03:21:04.031Z,56.93
2023-11-18T03:24:00.097Z,56.90
2023-11-18T03:26:33.779Z,56.80
2023-11-18T03:29:07.202Z,56.54
2023-11-18T03:31:41.228Z,56.39
2023-11-18T03:34:14.499Z,57.58
2023-11-18T03:36:48.615Z,56.82
2023-11-18T03:39:21.431Z,57.06
2023-11-18T03:41:54.058Z,57.25
2023-11-18T03:47:25.691Z,57.26
2023-11-18T03:49:58.283Z,57.18
2023-11-18T03:52:31.278Z,56.94
2023-11-18T03:55:05.688Z,57.00
2023-11-18T03:57:39.507Z,56.68
2023-11-18T04:00:19.283Z,56.82
2023-11-18T04:02:53.319Z,56.99
2023-11-18T04:05:26.466Z,56.99
2023-11-18T04:08:22.772Z,57.18
2023-11-18T04:10:56.418Z,57.17
2023-11-18T04:13:29.072Z,57.29
2023-11-18T04:16:02.353Z,57.62
2023-11-18T04:18:36.495Z,57.68
2023-11-18T04:21:10.322Z,57.25
2023-11-18T04:23:43.949Z,57.49
2023-11-18T04:26:17.054Z,57.85
2023-11-18T04:29:13.677Z,57.69
2023-11-18T04:31:46.342Z,57.57
2023-11-18T04:34:20.684Z,57.88
2023-11-18T04:36:53.326Z,57.67
2023-11-18T04:39:27.088Z,57.67
2023-11-18T04:42:00.006Z,58.44
2023-11-18T04:44:32.941Z,58.16
2023-11-18T04:47:06.472Z,58.22
2023-11-18T04:49:41.048Z,59.00
2023-11-18T04:52:13.760Z,58.75
2023-11-18T04:54:49.409Z,59.34
2023-11-18T04:57:22.431Z,58.51
2023-11-18T04:59:55.318Z,59.04
2023-11-18T05:02:28.251Z,59.15
2023-11-18T05:05:02.270Z,59.02
2023-11-18T05:07:58.810Z,59.44
2023-11-18T05:10:31.922Z,59.29
2023-11-18T05:13:05.622Z,59.63
2023-11-18T05:15:38.933Z,59.73
2023-11-18T05:18:13.296Z,60.33
2023-11-18T05:20:47.791Z,60.35
2023-11-18T05:23:20.714Z,60.72
2023-11-18T05:25:53.722Z,60.72
2023-11-18T05:28:26.806Z,61.16
2023-11-18T05:31:02.547Z,61.07
2023-11-18T05:33:59.595Z,61.19
2023-11-18T05:36:38.884Z,61.21
2023-11-18T05:39:12.150Z,61.70
2023-11-18T05:41:47.199Z,61.83
2023-11-18T05:44:20.951Z,62.00
2023-11-18T05:46:54.095Z,61.84
2023-11-18T05:49:27.568Z,62.15
2023-11-18T05:52:01.868Z,61.97
2023-11-18T05:54:34.578Z,61.95
2023-11-18T05:57:08.195Z,62.38
2023-11-18T05:59:41.167Z,62.57
2023-11-18T06:02:19.060Z,62.75
2023-11-18T06:04:52.791Z,62.70
2023-11-18T06:07:27.004Z,63.09
2023-11-18T06:10:00.272Z,63.40
2023-11-18T06:12:33.077Z,63.49
2023-11-18T06:15:07.149Z,63.49
2023-11-18T06:17:41.073Z,63.49
2023-11-18T06:20:15.927Z,63.51
2023-11-18T06:22:49.905Z,63.96
2023-11-18T06:25:47.351Z,64.04
2023-11-18T06:28:20.628Z,63.90
2023-11-18T06:30:54.326Z,64.27
2023-11-18T06:33:28.995Z,64.26
2023-11-18T06:36:02.218Z,64.47
2023-11-18T06:38:36.434Z,64.58
2023-11-18T06:41:18.206Z,64.38
2023-11-18T06:43:57.964Z,64.47
2023-11-18T06:46:36.052Z,64.55
2023-11-18T06:49:08.845Z,64.97
2023-11-18T06:52:05.287Z,64.70
2023-11-18T06:54:41.842Z,64.55
2023-11-18T06:57:15.154Z,64.18
2023-11-18T06:59:47.792Z,64.25
2023-11-18T07:02:22.622Z,64.37
2023-11-18T07:04:55.114Z,64.20
2023-11-18T07:07:27.775Z,63.88
2023-11-18T07:10:02.113Z,64.20
2023-11-18T07:12:58.459Z,63.91
2023-11-18T07:15:31.814Z,63.86
2023-11-18T07:18:05.343Z,64.09
2023-11-18T07:20:38.022Z,63.54
2023-11-18T07:23:35.029Z,63.66
2023-11-18T07:26:11.563Z,63.24
2023-11-18T07:28:45.614Z,62.85
2023-11-18T07:31:19.961Z,63.15
2023-11-18T07:33:54.136Z,62.77
2023-11-18T07:36:27.209Z,62.36
2023-11-18T07:42:00.455Z,61.83
2023-11-18T07:44:35.792Z,62.00
2023-11-18T07:50:06.056Z,61.55
2023-11-18T07:52:40.474Z,61.66
2023-11-18T07:55:14.432Z,60.98
2023-11-18T08:00:50.172Z,60.76
2023-11-18T08:03:23.921Z,60.89
2023-11-18T08:08:51.766Z,60.84
2023-11-18T08:11:48.464Z,61.31
2023-11-18T08:14:24.028Z,60.84
2023-11-18T08:16:58.211Z,60.39
2023-11-18T08:19:32.759Z,60.89
2023-11-18T08:22:05.466Z,60.61
2023-11-18T08:24:40.225Z,60.24
2023-11-18T08:27:12.759Z,60.69
2023-11-18T08:29:47.937Z,60.35
2023-11-18T08:32:21.405Z,59.61
2023-11-18T08:34:54.237Z,59.70
2023-11-18T08:37:29.640Z,59.31
2023-11-18T08:45:57.620Z,59.73
2023-11-18T08:48:30.652Z,59.14
2023-11-18T08:51:04.060Z,59.89
2023-11-18T08:53:42.577Z,59.97
2023-11-18T08:56:15.812Z,60.65
2023-11-18T08:58:50.783Z,60.64
2023-11-18T09:01:29.992Z,60.14
2023-11-18T09:04:03.352Z,60.45
2023-11-18T09:06:35.970Z,60.37
2023-11-18T09:09:12.639Z,59.18
2023-11-18T09:11:45.900Z,60.01
2023-11-18T09:14:21.350Z,59.32
2023-11-18T09:17:00.367Z,59.48
2023-11-18T09:19:33.925Z,58.87
2023-11-18T09:22:06.585Z,59.08
2023-11-18T09:24:40.565Z,58.86
2023-11-18T09:27:13.943Z,58.69
2023-11-18T09:29:46.679Z,59.29
2023-11-18T09:32:27.481Z,58.76
2023-11-18T09:35:00.733Z,58.96
2023-11-18T09:37:33.680Z,58.77
2023-11-18T09:40:12.822Z,58.69
2023-11-18T09:42:45.918Z,58.50
2023-11-18T09:45:21.788Z,59.05
2023-11-18T09:47:56.542Z,58.55
2023-11-18T09:50:33.790Z,58.85
2023-11-18T09:53:12.937Z,59.01
2023-11-18T09:55:55.192Z,58.26
2023-11-18T09:59:05.038Z,58.77
2023-11-18T10:01:44.708Z,58.30
2023-11-18T10:04:20.410Z,58.22
2023-11-18T10:06:54.950Z,58.31
2023-11-18T10:09:54.920Z,58.54
2023-11-18T10:12:28.176Z,57.99
2023-11-18T10:15:26.780Z,57.68
2023-11-18T10:18:02.381Z,58.42
2023-11-18T10:20:47.766Z,58.25
2023-11-18T10:23:23.007Z,58.33
2023-11-18T10:26:20.466Z,58.59
2023-11-18T10:28:53.669Z,58.05
2023-11-18T10:31:30.273Z,58.80
2023-11-18T10:34:05.440Z,58.76
2023-11-18T10:36:40.525Z,57.87
2023-11-18T10:39:17.720Z,56.53
2023-11-18T10:41:51.020Z,56.44
2023-11-18T10:44:25.449Z,57.24
2023-11-18T10:49:58.755Z,56.33
2023-11-18T10:52:36.491Z,56.10
2023-11-18T10:55:13.799Z,56.45
2023-11-18T10:57:47.568Z,56.35
2023-11-18T11:00:20.908Z,55.65
2023-11-18T11:02:59.692Z,55.74
2023-11-18T11:05:34.565Z,55.63
2023-11-18T11:08:09.737Z,55.15
2023-11-18T11:10:45.910Z,55.74
2023-11-18T11:13:19.232Z,54.80
2023-11-18T11:15:57.728Z,54.94
2023-11-18T11:18:36.229Z,55.34
2023-11-18T11:21:17.974Z,55.34
2023-11-18T11:23:59.006Z,54.74
2023-11-18T11:26:41.818Z,54.77
2023-11-18T11:29:27.946Z,55.21
2023-11-18T11:32:14.402Z,54.33
2023-11-18T11:34:55.009Z,55.17
2023-11-18T11:37:32.053Z,55.20
2023-11-18T11:40:11.804Z,54.28
2023-11-18T11:42:45.993Z,54.67
2023-11-18T11:45:23.415Z,54.42
2023-11-18T11:48:15.863Z,54.17
2023-11-18T11:51:21.726Z,54.89
2023-11-18T12:00:20.052Z,53.71
2023-11-18T12:02:56.483Z,53.71
2023-11-18T12:08:26.748Z,53.62
2023-11-18T12:11:01.169Z,53.32
2023-11-18T12:13:40.654Z,54.40
2023-11-18T12:16:17.862Z,53.39
2023-11-18T12:19:46.198Z,53.35
2023-11-18T12:22:26.098Z,53.00
2023-11-18T12:25:34.060Z,52.94
2023-11-18T12:28:11.762Z,53.61
2023-11-18T12:30:58.970Z,53.68
2023-11-18T12:34:11.314Z,53.39
2023-11-18T12:37:35.957Z,53.73
2023-11-18T12:40:48.309Z,53.06
2023-11-18T12:43:42.086Z,53.72
2023-11-18T12:46:57.966Z,53.30
2023-11-18T12:49:31.643Z,52.96
2023-11-18T12:52:09.770Z,53.33
2023-11-18T12:54:45.076Z,53.73
2023-11-18T12:57:47.964Z,52.87
2023-11-18T13:00:28.206Z,53.69
2023-11-18T13:03:03.278Z,53.19
2023-11-18T13:05:38.224Z,53.18
2023-11-18T13:08:11.771Z,53.00
2023-11-18T13:10:45.584Z,53.30
2023-11-18T13:13:21.248Z,53.32
2023-11-18T13:15:54.237Z,53.20
2023-11-18T13:21:25.660Z,53.29
2023-11-18T13:23:58.826Z,53.92
2023-11-18T13:29:43.602Z,53.73
2023-11-18T13:32:17.718Z,53.56
2023-11-18T13:34:53.229Z,53.59
2023-11-18T13:37:26.162Z,53.76
2023-11-18T13:40:04.350Z,53.59
2023-11-18T13:42:38.970Z,54.13
2023-11-18T13:48:18.725Z,54.11
2023-11-18T13:50:53.700Z,53.81
2023-11-18T13:53:26.935Z,53.70
2023-11-18T13:55:59.489Z,54.37
2023-11-18T13:58:32.816Z,54.20
2023-11-18T14:01:08.810Z,54.66
2023-11-18T14:04:06.772Z,54.34
2023-11-18T14:06:41.095Z,55.03
2023-11-18T14:09:14.293Z,54.91
2023-11-18T14:11:46.918Z,54.53
2023-11-18T14:17:15.512Z,55.23
2023-11-18T14:19:48.205Z,55.57
2023-11-18T14:22:22.876Z,55.30
2023-11-18T14:24:55.820Z,55.64
2023-11-18T14:27:30.161Z,55.92
2023-11-18T14:30:03.565Z,55.63
2023-11-18T14:32:39.509Z,55.65
2023-11-18T14:35:13.016Z,55.91
2023-11-18T14:37:47.137Z,56.44
2023-11-18T14:40:43.075Z,57.40
2023-11-18T14:43:16.725Z,56.53
2023-11-18T14:45:50.286Z,57.18
2023-11-18T14:48:46.586Z,56.71
2023-11-18T14:51:20.318Z,56.73
2023-11-18T14:53:54.816Z,57.22
2023-11-18T14:56:27.893Z,57.28
2023-11-18T14:59:01.342Z,57.55
2023-11-18T15:01:34.690Z,57.56
2023-11-18T15:04:07.580Z,57.87
2023-11-18T15:06:42.287Z,57.33
2023-11-18T15:09:16.651Z,57.73
2023-11-18T15:11:51.677Z,58.28
2023-11-18T15:14:26.170Z,58.48
2023-11-18T15:17:23.726Z,58.94
2023-11-18T15:19:57.086Z,59.16
2023-11-18T15:22:30.211Z,59.40
2023-11-18T15:25:28.361Z,59.38
2023-11-18T15:28:02.238Z,59.71
2023-11-18T15:30:34.853Z,59.66
2023-11-18T15:33:33.096Z,59.77
2023-11-18T15:36:08.914Z,60.42
2023-11-18T15:38:42.221Z,60.28
2023-11-18T15:41:16.265Z,59.81
2023-11-18T15:43:50.140Z,60.32
2023-11-18T15:46:22.630Z,60.38
2023-11-18T15:48:57.031Z,60.15
2023-11-18T15:51:31.742Z,60.23
2023-11-18T15:54:07.278Z,60.13
2023-11-18T15:56:43.762Z,60.85
2023-11-18T15:59:17.015Z,61.17
2023-11-18T16:01:49.641Z,61.20
2023-11-18T16:04:22.543Z,61.44
2023-11-18T16:06:55.221Z,61.69
2023-11-18T16:09:28.972Z,61.79
2023-11-18T16:12:04.373Z,61.96
2023-11-18T16:14:37.577Z,61.92
2023-11-18T16:17:10.669Z,61.75
2023-11-18T16:19:44.080Z,62.29
2023-11-18T16:22:17.387Z,62.35
2023-11-18T16:24:49.972Z,62.58
2023-11-18T16:27:48.559Z,62.63
2023-11-18T16:30:26.090Z,62.52
2023-11-18T16:33:02.732Z,62.57
2023-11-18T16:35:37.784Z,62.60
2023-11-18T16:38:12.539Z,62.91
2023-11-18T16:40:45.165Z,63.09
2023-11-18T16:43:19.721Z,63.18
2023-11-18T16:45:52.435Z,63.18
2023-11-18T16:48:26.110Z,63.06
2023-11-18T16:50:59.016Z,63.39
2023-11-18T16:53:32.659Z,63.19
2023-11-18T16:56:07.187Z,63.65
2023-11-18T16:58:41.619Z,64.02
2023-11-18T17:01:15.016Z,64.15
2023-11-18T17:03:49.181Z,63.84
2023-11-18T17:06:22.362Z,64.00
2023-11-18T17:08:55.788Z,63.74
2023-11-18T17:11:28.580Z,63.95
2023-11-18T17:14:06.789Z,64.43
2023-11-18T17:16:39.378Z,64.18
2023-11-18T17:19:13.490Z,64.09
2023-11-18T17:21:46.636Z,64.76
2023-11-18T17:24:19.839Z,64.48
2023-11-18T17:26:52.983Z,64.60
2023-11-18T17:29:27.518Z,65.20
2023-11-18T17:32:00.952Z,65.42
2023-11-18T17:34:34.318Z,65.47
2023-11-18T17:37:09.681Z,65.18
2023-11-18T17:39:42.543Z,65.77
2023-11-18T17:42:16.676Z,65.86
2023-11-18T17:44:50.762Z,65.18
2023-11-18T17:47:26.831Z,64.76
2023-11-18T17:50:03.112Z,64.85
2023-11-18T17:53:04.387Z,64.79
2023-11-18T17:55:36.994Z,65.02
2023-11-18T17:58:11.952Z,65.18
2023-11-18T18:00:47.129Z,65.28
2023-11-18T18:03:45.218Z,64.86
2023-11-18T18:06:18.015Z,65.29
2023-11-18T18:08:51.300Z,65.25
2023-11-18T18:11:24.090Z,65.29
2023-11-18T18:13:57.513Z,65.69
2023-11-18T18:16:31.586Z,66.39
2023-11-18T18:19:04.878Z,65.91
2023-11-18T18:21:38.188Z,65.80
2023-11-18T18:24:34.919Z,65.67
2023-11-18T18:27:08.149Z,65.70
2023-11-18T18:29:41.678Z,65.91
2023-11-18T18:32:16.634Z,65.95
2023-11-18T18:34:49.447Z,66.17
2023-11-18T18:37:24.943Z,65.53
2023-11-18T18:39:58.084Z,65.84
2023-11-18T18:42:31.536Z,65.84
2023-11-18T18:45:05.594Z,65.82
2023-11-18T18:47:41.303Z,65.82
2023-11-18T18:50:15.496Z,65.78
2023-11-18T18:52:48.390Z,66.39
2023-11-18T18:55:45.424Z,66.43
2023-11-18T18:58:18.948Z,66.71
2023-11-18T19:00:53.940Z,66.70
2023-11-18T19:03:28.305Z,66.68
2023-11-18T19:06:02.489Z,67.11
2023-11-18T19:08:35.600Z,66.79
2023-11-18T19:11:08.604Z,66.53
2023-11-18T19:13:42.915Z,66.86
2023-11-18T19:16:16.465Z,66.49
2023-11-18T19:18:51.261Z,66.66
2023-11-18T19:21:30.452Z,66.69
2023-11-18T19:24:03.623Z,67.03
2023-11-18T19:26:38.114Z,66.67
2023-11-18T19:29:10.813Z,66.92
2023-11-18T19:31:44.174Z,66.99
2023-11-18T19:34:19.047Z,67.10
2023-11-18T19:36:52.969Z,67.26
2023-11-18T19:39:51.905Z,67.56
2023-11-18T19:42:24.454Z,66.99
2023-11-18T19:44:59.831Z,67.36
2023-11-18T19:47:33.894Z,67.20
2023-11-18T19:50:31.774Z,67.59
2023-11-18T19:53:04.851Z,67.69
2023-11-18T19:55:37.757Z,67.56
2023-11-18T19:58:10.827Z,67.38
2023-11-18T20:01:17.975Z,67.60
2023-11-18T20:03:51.987Z,67.50
2023-11-18T20:06:25.999Z,67.16
2023-11-18T20:08:58.612Z,67.40
2023-11-18T20:14:35.497Z,67.54
2023-11-18T20:17:09.106Z,67.34
2023-11-18T20:20:08.883Z,68.01
2023-11-18T20:22:43.195Z,67.59
2023-11-18T20:25:16.492Z,67.91
2023-11-18T20:27:49.470Z,67.49
2023-11-18T20:30:22.878Z,67.76
2023-11-18T20:32:57.218Z,67.42
2023-11-18T20:35:31.145Z,67.01
2023-11-18T20:38:05.805Z,66.90
2023-11-18T20:40:38.977Z,67.04
2023-11-18T20:43:12.927Z,66.96
2023-11-18T20:45:45.997Z,67.11
2023-11-18T20:48:43.734Z,67.13
2023-11-18T20:51:17.837Z,67.01
2023-11-18T20:53:52.606Z,67.29
2023-11-18T20:56:26.597Z,67.28
2023-11-18T20:59:00.366Z,67.13
2023-11-18T21:01:34.673Z,67.39
2023-11-18T21:04:07.581Z,67.16
2023-11-18T21:09:37.308Z,67.56
2023-11-18T21:12:18.055Z,67.17
2023-11-18T21:14:53.335Z,67.18
2023-11-18T21:17:26.972Z,67.50
2023-11-18T21:20:00.518Z,66.95
2023-11-18T21:22:33.212Z,66.80
2023-11-18T21:25:09.684Z,67.09
2023-11-18T21:27:42.277Z,67.74
2023-11-18T21:30:16.043Z,67.75
2023-11-18T21:32:49.198Z,66.91
2023-11-18T21:35:24.083Z,67.33
2023-11-18T21:37:57.524Z,67.23
2023-11-18T21:40:32.358Z,67.18
2023-11-18T21:43:05.661Z,67.66
2023-11-18T21:45:39.055Z,67.55
2023-11-18T21:48:12.226Z,67.27
2023-11-18T21:50:45.456Z,66.97
2023-11-18T21:53:21.662Z,67.32
2023-11-18T21:56:22.557Z,67.31
2023-11-18T21:58:55.024Z,67.12
2023-11-18T22:07:19.590Z,67.71
2023-11-18T22:09:52.465Z,67.32
2023-11-18T22:12:27.700Z,67.43
2023-11-18T22:15:00.374Z,67.39
2023-11-18T22:17:35.461Z,67.09
2023-11-18T22:20:14.840Z,67.17
2023-11-18T22:22:50.700Z,66.86
2023-11-18T22:25:27.362Z,67.03
2023-11-18T22:28:04.374Z,66.66
2023-11-18T22:30:38.114Z,66.95
2023-11-18T22:33:10.948Z,67.39
2023-11-18T22:35:44.808Z,67.19
2023-11-18T22:38:17.961Z,67.08
2023-11-18T22:40:51.545Z,66.32
2023-11-18T22:43:25.642Z,67.33
2023-11-18T22:45:58.579Z,67.04
2023-11-18T22:48:54.654Z,66.85
2023-11-18T22:51:29.141Z,66.74
2023-11-18T22:54:02.113Z,66.72
2023-11-18T22:56:35.649Z,66.81
2023-11-18T22:59:10.195Z,67.72
2023-11-18T23:01:44.923Z,67.43
2023-11-18T23:04:19.223Z,67.76
2023-11-18T23:06:58.953Z,67.16
2023-11-18T23:09:31.449Z,67.14
2023-11-18T23:12:07.630Z,67.65
2023-11-18T23:14:42.488Z,67.43
2023-11-18T23:17:19.346Z,66.54
2023-11-18T23:19:52.024Z,66.86
2023-11-18T23:22:48.779Z,67.07
2023-11-18T23:25:45.990Z,66.84
2023-11-18T23:28:20.163Z,67.47
2023-11-18T23:30:58.414Z,66.84
2023-11-18T23:33:31.530Z,67.11
2023-11-18T23:36:04.600Z,67.18
2023-11-18T23:38:37.989Z,66.91
2023-11-18T23:41:10.466Z,66.84
2023-11-18T23:43:43.437Z,67.22
2023-11-18T23:46:17.890Z,67.23
2023-11-18T23:48:52.639Z,67.30
2023-11-18T23:51:25.372Z,67.37
2023-11-18T23:54:25.458Z,67.31
2023-11-18T23:56:58.192Z,67.00
2023-11-18T23:59:32.113Z,67.14
